Аэропорт: Внуково. Москва

ICAO: UUWW

METAR:
2021-04-21 21:30:00
UUWW 212130Z 18003MPS CAVOK 04/02 Q1011 R24/190060 NOSIG
METAR:
2021-04-21 19:58:00
TAF UUWW 211958Z 2121/2221 18003G08MPS 8000 FEW006 BKN016 TX13/2212Z TN02/2203Z TEMPO 2121/2209 -SHRA BKN012CB TEMPO 2209/2218 19008G13MPS 2100 -SHRA SCT020CB